Time;durP1;ratioP1;P1;durP2;ratioP2;P2;SDS_P1;SDS_P2;PMS_P1;PMS_P2;Temp;Humidity;BMP_temperature;BMP_pressure;BME280_temperature;BME280_humidity;BME280_pressure;Samples;Min_cycle;Max_cycle;Signal;HPM_P1;HPM_P2
2022/08/10 00:00:19;;;;;;;6.53;1.92;;;17.70;99.90;;;;;;4898112;29;20092;-83
2022/08/10 00:02:36;;;;;;;4.45;2.00;;;17.60;99.90;;;;;;4881107;29;20057;-78
2022/08/10 00:05:23;;;;;;;6.07;2.45;;;17.60;99.90;;;;;;4881902;29;20506;-83
2022/08/10 00:08:09;;;;;;;4.95;2.38;;;17.60;99.90;;;;;;4881488;29;20108;-79
2022/08/10 00:10:56;;;;;;;5.63;2.47;;;17.60;99.90;;;;;;4901636;29;20087;-82
2022/08/10 00:13:43;;;;;;;5.85;2.38;;;17.50;99.90;;;;;;4897518;29;20048;-80
2022/08/10 00:16:29;;;;;;;6.65;2.33;;;17.50;99.90;;;;;;4896503;29;20406;-79
2022/08/10 00:19:16;;;;;;;5.47;2.22;;;17.40;99.90;;;;;;4881323;29;20057;-82
2022/08/10 00:22:02;;;;;;;7.10;2.60;;;17.40;99.90;;;;;;4896959;29;20048;-80
2022/08/10 00:24:48;;;;;;;5.30;2.28;;;17.30;99.90;;;;;;4884020;29;20486;-79
2022/08/10 00:27:34;;;;;;;4.68;2.28;;;17.30;99.90;;;;;;4897806;29;20060;-79
2022/08/10 00:30:21;;;;;;;5.68;2.70;;;17.30;99.90;;;;;;4895684;29;20044;-83
2022/08/10 00:33:07;;;;;;;7.43;2.05;;;17.30;99.90;;;;;;4883819;29;20064;-80
2022/08/10 00:35:53;;;;;;;6.05;2.10;;;17.20;99.90;;;;;;4896617;29;20059;-80
2022/08/10 00:38:39;;;;;;;7.63;2.15;;;17.20;99.90;;;;;;4897212;29;20064;-82
2022/08/10 00:41:25;;;;;;;4.93;2.05;;;17.10;99.90;;;;;;4897120;29;20144;-79
2022/08/10 00:44:12;;;;;;;8.52;2.70;;;17.10;99.90;;;;;;4896342;29;20108;-81
2022/08/10 00:46:59;;;;;;;6.78;2.42;;;17.20;99.90;;;;;;4897210;29;20540;-79
2022/08/10 00:49:46;;;;;;;8.55;2.03;;;17.10;99.90;;;;;;4867457;29;20466;-80
2022/08/10 00:52:33;;;;;;;5.90;2.15;;;17.20;99.90;;;;;;4899507;29;20134;-81
2022/08/10 00:55:20;;;;;;;7.38;2.50;;;17.20;99.90;;;;;;4884426;29;20052;-79
2022/08/10 00:58:07;;;;;;;5.15;2.55;;;17.20;99.90;;;;;;4881567;29;20061;-78
2022/08/10 01:00:53;;;;;;;4.95;2.22;;;17.20;99.90;;;;;;4883032;29;20060;-80
2022/08/10 01:03:39;;;;;;;5.00;2.83;;;17.20;99.90;;;;;;4896155;29;20063;-80
2022/08/10 01:06:32;;;;;;;7.63;2.70;;;17.20;99.90;;;;;;4896840;29;20112;-78
2022/08/10 01:09:18;;;;;;;9.15;2.65;;;17.20;99.90;;;;;;4880164;29;20515;-79
2022/08/10 01:12:15;;;;;;;12.63;3.33;;;17.20;99.90;;;;;;4879941;29;20088;-80
2022/08/10 01:15:10;;;;;;;7.15;3.28;;;17.20;99.90;;;;;;4898257;29;20404;-80
2022/08/10 01:18:06;;;;;;;6.47;2.03;;;17.20;99.90;;;;;;4896867;29;20120;-79
2022/08/10 01:21:11;;;;;;;5.20;2.58;;;17.20;99.90;;;;;;4896604;29;20048;-81
2022/08/10 01:24:03;;;;;;;6.45;2.33;;;17.10;99.90;;;;;;4895094;29;20053;-81
2022/08/10 01:26:52;;;;;;;7.30;2.80;;;17.10;99.90;;;;;;4895776;29;20548;-77
2022/08/10 01:29:59;;;;;;;6.35;2.45;;;17.10;99.90;;;;;;4895302;29;20100;-80
2022/08/10 01:33:02;;;;;;;6.53;2.50;;;17.10;99.90;;;;;;4883360;29;20449;-78
2022/08/10 01:36:11;;;;;;;6.30;2.65;;;17.10;99.90;;;;;;4879627;29;20116;-81
2022/08/10 01:39:01;;;;;;;7.57;2.22;;;17.10;99.90;;;;;;4896105;29;20127;-80
2022/08/10 01:41:54;;;;;;;6.03;2.70;;;17.00;99.90;;;;;;4894890;29;20176;-80
2022/08/10 01:44:55;;;;;;;7.10;3.33;;;17.00;99.90;;;;;;4896447;29;20139;-82
2022/08/10 01:50:53;;;;;;;9.60;2.83;;;17.00;99.90;;;;;;4896864;29;20060;-80
2022/08/10 01:53:45;;;;;;;7.45;2.53;;;17.00;99.90;;;;;;4883286;29;20143;-81
2022/08/10 01:56:38;;;;;;;5.00;2.90;;;17.00;99.90;;;;;;4896477;29;20052;-82
2022/08/10 01:59:32;;;;;;;6.00;2.75;;;17.00;99.90;;;;;;4896904;29;20115;-79
2022/08/10 02:02:20;;;;;;;6.70;2.67;;;17.00;99.90;;;;;;4894772;29;20095;-79
2022/08/10 02:05:07;;;;;;;5.55;2.75;;;17.00;99.90;;;;;;4895978;29;20064;-78
2022/08/10 02:07:55;;;;;;;6.60;2.67;;;16.90;99.90;;;;;;4879163;29;20106;-78
2022/08/10 02:10:43;;;;;;;5.82;2.63;;;17.00;99.90;;;;;;4894792;29;20056;-80
2022/08/10 02:13:31;;;;;;;6.30;2.80;;;17.00;99.90;;;;;;4895302;29;20060;-79
2022/08/10 02:16:20;;;;;;;6.07;3.28;;;17.00;99.90;;;;;;4896717;29;20434;-78
2022/08/10 02:19:07;;;;;;;7.07;2.45;;;16.90;99.90;;;;;;4879514;29;20057;-78
2022/08/10 02:21:54;;;;;;;5.57;2.70;;;16.90;99.90;;;;;;4895579;29;20135;-79
2022/08/10 02:24:43;;;;;;;6.22;2.70;;;16.90;99.90;;;;;;4896279;29;20097;-80
2022/08/10 02:27:31;;;;;;;6.90;2.83;;;16.90;99.90;;;;;;4881666;29;20139;-80
2022/08/10 02:30:18;;;;;;;7.55;3.30;;;16.90;99.90;;;;;;4882168;29;20421;-81
2022/08/10 02:33:05;;;;;;;6.15;2.50;;;16.90;99.90;;;;;;4895120;29;20502;-83
2022/08/10 02:35:53;;;;;;;11.50;3.05;;;16.80;99.90;;;;;;4879238;29;20048;-81
2022/08/10 02:38:50;;;;;;;7.68;2.83;;;16.80;99.90;;;;;;4895108;29;20068;-82
2022/08/10 02:41:50;;;;;;;6.25;3.50;;;16.80;99.90;;;;;;4895312;29;20121;-83
2022/08/10 02:44:50;;;;;;;5.18;2.88;;;16.70;99.90;;;;;;4894261;29;20584;-81
2022/08/10 02:47:44;;;;;;;5.32;3.15;;;16.70;99.90;;;;;;4884867;29;20068;-77
2022/08/10 02:50:42;;;;;;;10.60;4.25;;;16.70;99.90;;;;;;4896631;29;20155;-82
2022/08/10 02:53:34;;;;;;;10.27;5.25;;;16.60;99.90;;;;;;4880927;29;20107;-80
2022/08/10 02:56:27;;;;;;;7.45;4.10;;;16.60;99.90;;;;;;4898912;29;20055;-80
2022/08/10 02:59:33;;;;;;;10.70;4.85;;;16.50;99.90;;;;;;4898423;29;20147;-83
2022/08/10 03:02:29;;;;;;;8.48;5.28;;;16.50;99.90;;;;;;4899230;29;20052;-82
2022/08/10 03:05:20;;;;;;;7.57;4.32;;;16.40;99.90;;;;;;4898870;29;20044;-82
2022/08/10 03:08:10;;;;;;;8.18;4.55;;;16.40;99.90;;;;;;4898563;29;20124;-78
2022/08/10 03:11:00;;;;;;;11.93;5.35;;;16.30;99.90;;;;;;4883309;29;20147;-80
2022/08/10 03:13:50;;;;;;;12.20;4.85;;;16.30;99.90;;;;;;4898207;29;20057;-83
2022/08/10 03:16:37;;;;;;;5.93;3.83;;;16.30;99.90;;;;;;4898506;29;20056;-82
2022/08/10 03:19:26;;;;;;;12.52;4.40;;;16.20;99.90;;;;;;4897355;29;20092;-83
2022/08/10 03:22:14;;;;;;;8.77;4.13;;;16.20;99.90;;;;;;4884608;29;20060;-83
2022/08/10 03:25:01;;;;;;;9.88;4.10;;;16.20;99.90;;;;;;4897835;29;20052;-83
2022/08/10 03:27:48;;;;;;;7.93;4.13;;;16.20;99.90;;;;;;4897896;29;20052;-82
2022/08/10 03:30:35;;;;;;;8.85;4.35;;;16.10;99.90;;;;;;4897340;29;20124;-82
2022/08/10 03:33:25;;;;;;;8.60;3.72;;;16.10;99.90;;;;;;4899082;29;20112;-81
2022/08/10 03:36:11;;;;;;;7.80;3.90;;;16.10;99.90;;;;;;4883496;29;20485;-81
2022/08/10 03:38:58;;;;;;;5.97;3.45;;;16.00;99.90;;;;;;4882006;29;20055;-82
2022/08/10 03:41:54;;;;;;;10.77;4.07;;;16.00;99.90;;;;;;4897797;29;20060;-82
2022/08/10 03:44:41;;;;;;;7.32;4.07;;;16.00;99.90;;;;;;4881388;29;20062;-80
2022/08/10 03:47:29;;;;;;;5.18;2.63;;;15.90;99.90;;;;;;4882709;29;20067;-80
2022/08/10 03:50:16;;;;;;;6.22;3.78;;;15.90;99.90;;;;;;4897475;29;20096;-81
2022/08/10 03:53:03;;;;;;;8.65;3.65;;;15.90;99.90;;;;;;4897763;29;20055;-81
2022/08/10 03:55:50;;;;;;;6.75;3.53;;;16.00;99.90;;;;;;4897378;29;20428;-81
2022/08/10 03:58:37;;;;;;;5.13;3.47;;;16.00;99.90;;;;;;4898432;29;20513;-79
2022/08/10 04:01:24;;;;;;;7.28;4.22;;;16.00;99.90;;;;;;4881096;29;20497;-78
2022/08/10 04:04:11;;;;;;;10.25;4.50;;;16.00;99.90;;;;;;4897126;29;20093;-79
2022/08/10 04:07:00;;;;;;;8.95;4.78;;;16.10;99.90;;;;;;4898200;29;20067;-81
2022/08/10 04:09:46;;;;;;;8.32;4.32;;;16.10;99.90;;;;;;4897188;29;20291;-82
2022/08/10 04:12:32;;;;;;;11.93;4.68;;;16.20;99.90;;;;;;4882844;29;20098;-81
2022/08/10 04:15:19;;;;;;;8.40;4.43;;;16.30;99.90;;;;;;4897857;29;20060;-82
2022/08/10 04:18:05;;;;;;;8.43;4.43;;;16.40;99.90;;;;;;4883784;29;20599;-79
2022/08/10 04:21:01;;;;;;;7.25;4.35;;;16.40;99.90;;;;;;4896259;29;20052;-81
2022/08/10 04:23:49;;;;;;;8.43;4.78;;;16.50;99.90;;;;;;4897371;29;20059;-79
2022/08/10 04:26:36;;;;;;;8.15;3.70;;;16.50;99.90;;;;;;4898648;29;20049;-82
2022/08/10 04:29:22;;;;;;;8.48;3.60;;;16.50;99.90;;;;;;4897283;29;20119;-82
2022/08/10 04:32:09;;;;;;;9.82;3.83;;;16.60;99.90;;;;;;4897226;29;20503;-78
2022/08/10 04:34:57;;;;;;;11.95;4.50;;;16.60;99.90;;;;;;4897093;29;20056;-81
2022/08/10 04:37:45;;;;;;;8.07;3.55;;;16.60;99.90;;;;;;4898023;29;20064;-81
2022/08/10 04:40:31;;;;;;;7.45;3.28;;;16.70;99.90;;;;;;4899404;29;20052;-78
2022/08/10 04:43:17;;;;;;;7.32;4.10;;;16.70;99.90;;;;;;4900258;29;20092;-80
2022/08/10 04:46:04;;;;;;;7.10;3.70;;;16.70;99.90;;;;;;4897797;29;20898;-78
2022/08/10 04:48:50;;;;;;;6.90;3.10;;;16.80;99.90;;;;;;4897123;29;20091;-81
2022/08/10 04:51:36;;;;;;;8.77;3.63;;;16.80;99.90;;;;;;4899434;29;20095;-81
2022/08/10 04:54:22;;;;;;;10.48;3.88;;;16.90;99.90;;;;;;4883210;29;20044;-78
2022/08/10 04:57:08;;;;;;;7.28;3.88;;;16.90;99.90;;;;;;4882124;29;20088;-81
2022/08/10 04:59:55;;;;;;;11.20;4.03;;;16.90;99.90;;;;;;4897012;29;20135;-79
2022/08/10 05:02:41;;;;;;;7.57;3.22;;;17.00;99.90;;;;;;4897253;29;20057;-83
2022/08/10 05:05:27;;;;;;;7.00;2.75;;;17.00;99.90;;;;;;4879629;29;20059;-82
2022/08/10 05:08:13;;;;;;;5.57;2.67;;;17.10;99.90;;;;;;4899650;29;20044;-80
2022/08/10 05:10:59;;;;;;;8.43;3.00;;;17.20;99.90;;;;;;4896608;29;20138;-82
2022/08/10 05:13:46;;;;;;;5.72;3.05;;;17.20;99.90;;;;;;4866991;29;20075;-82
2022/08/10 05:16:32;;;;;;;5.30;2.60;;;17.30;99.90;;;;;;4882175;29;20139;-81
2022/08/10 05:19:18;;;;;;;8.45;3.30;;;17.40;99.90;;;;;;4895446;29;20057;-82
2022/08/10 05:22:05;;;;;;;5.95;2.75;;;17.50;99.90;;;;;;4880544;29;20139;-77
2022/08/10 05:24:51;;;;;;;7.22;2.80;;;17.60;99.90;;;;;;4895807;29;20052;-81
2022/08/10 05:27:39;;;;;;;7.25;3.40;;;17.70;99.90;;;;;;4896272;29;20047;-78
2022/08/10 05:30:26;;;;;;;5.03;2.55;;;17.80;99.90;;;;;;4896999;29;20048;-81
2022/08/10 05:33:12;;;;;;;7.65;2.83;;;17.90;99.90;;;;;;4896147;29;20052;-80
2022/08/10 05:35:59;;;;;;;7.47;2.63;;;17.90;99.90;;;;;;4895246;29;20048;-80
2022/08/10 05:38:47;;;;;;;4.45;2.20;;;18.10;99.90;;;;;;4897173;29;20075;-79
2022/08/10 05:41:34;;;;;;;6.65;2.70;;;18.20;99.90;;;;;;4897355;29;20045;-80
2022/08/10 05:44:21;;;;;;;5.30;2.35;;;18.30;99.90;;;;;;4879713;29;20060;-79
2022/08/10 05:47:07;;;;;;;8.98;2.70;;;18.30;99.90;;;;;;4880182;29;20076;-84
2022/08/10 05:49:54;;;;;;;6.60;2.28;;;18.50;99.90;;;;;;4894522;29;20055;-80
2022/08/10 05:52:40;;;;;;;5.65;2.08;;;18.60;99.90;;;;;;4895814;29;20060;-80
2022/08/10 05:55:29;;;;;;;6.93;2.63;;;18.80;99.90;;;;;;4896617;29;20056;-78
2022/08/10 05:58:16;;;;;;;5.18;2.40;;;18.90;99.90;;;;;;4898630;29;20091;-82
2022/08/10 06:01:08;;;;;;;5.60;2.22;;;19.00;99.90;;;;;;4894983;29;20048;-81
2022/08/10 06:03:57;;;;;;;8.20;3.42;;;19.10;99.90;;;;;;4895738;29;20472;-83
2022/08/10 06:06:46;;;;;;;6.57;2.03;;;19.20;99.90;;;;;;4894948;29;20056;-82
2022/08/10 06:09:35;;;;;;;5.10;2.00;;;19.30;99.90;;;;;;4895793;29;20497;-83
2022/08/10 06:12:22;;;;;;;6.15;2.55;;;19.50;99.90;;;;;;4896796;29;20522;-82
2022/08/10 06:15:10;;;;;;;5.70;2.10;;;19.60;99.90;;;;;;4896873;29;20059;-81
2022/08/10 06:17:58;;;;;;;5.45;2.00;;;19.80;99.90;;;;;;4879645;29;20059;-81
2022/08/10 06:20:45;;;;;;;6.57;2.20;;;19.80;99.90;;;;;;4894991;29;20055;-78
2022/08/10 06:23:33;;;;;;;5.80;2.33;;;19.90;99.90;;;;;;4895207;29;20060;-80
2022/08/10 06:26:19;;;;;;;7.47;2.10;;;20.10;99.90;;;;;;4894618;29;20048;-78
2022/08/10 06:29:09;;;;;;;6.60;2.30;;;20.20;99.90;;;;;;4887273;29;20144;-83
2022/08/10 06:31:57;;;;;;;5.25;2.40;;;20.30;99.90;;;;;;4900813;29;20092;-78
2022/08/10 06:34:49;;;;;;;6.20;1.80;;;20.40;99.90;;;;;;4901702;29;20056;-82
2022/08/10 06:37:37;;;;;;;5.10;1.83;;;20.60;99.90;;;;;;4886090;29;20063;-80
2022/08/10 06:40:28;;;;;;;5.15;2.40;;;20.50;99.90;;;;;;4903374;29;20486;-83
2022/08/10 06:43:18;;;;;;;5.57;1.88;;;20.70;99.90;;;;;;4902174;29;20052;-79
2022/08/10 06:46:10;;;;;;;5.55;1.88;;;20.80;99.90;;;;;;4885455;29;20094;-81
2022/08/10 06:49:01;;;;;;;7.15;2.22;;;20.90;99.90;;;;;;4901853;29;20096;-79
2022/08/10 06:51:53;;;;;;;4.22;2.00;;;21.00;99.90;;;;;;4901553;29;20505;-82
2022/08/10 06:54:41;;;;;;;6.75;1.83;;;21.10;99.90;;;;;;4885509;29;20529;-79
2022/08/10 06:57:35;;;;;;;7.03;2.30;;;21.20;99.90;;;;;;4901510;29;20056;-81
2022/08/10 07:00:25;;;;;;;5.00;1.60;;;21.10;99.90;;;;;;4901561;29;20052;-80
2022/08/10 07:03:14;;;;;;;6.05;1.80;;;21.20;99.90;;;;;;4901309;29;20053;-82
2022/08/10 07:06:05;;;;;;;5.82;1.75;;;21.20;99.90;;;;;;4902027;29;20139;-80
2022/08/10 07:08:52;;;;;;;6.45;1.80;;;21.30;99.90;;;;;;4901449;29;20052;-82
2022/08/10 07:11:42;;;;;;;5.28;2.08;;;21.40;99.90;;;;;;4902106;29;20229;-82
2022/08/10 07:14:30;;;;;;;5.80;1.80;;;21.60;99.90;;;;;;4901328;29;20084;-83
2022/08/10 07:17:18;;;;;;;7.10;2.17;;;21.90;99.90;;;;;;4902226;29;20044;-81
2022/08/10 07:20:10;;;;;;;6.47;2.03;;;21.90;99.90;;;;;;4899968;29;20052;-81
2022/08/10 07:22:57;;;;;;;5.90;2.10;;;22.10;99.90;;;;;;4885109;29;20068;-81
2022/08/10 07:25:45;;;;;;;5.35;2.03;;;22.20;99.90;;;;;;4901943;29;20607;-79
2022/08/10 07:28:33;;;;;;;5.95;1.50;;;22.40;99.90;;;;;;4902406;29;20045;-81
2022/08/10 07:31:20;;;;;;;4.32;1.40;;;22.40;99.90;;;;;;4901923;29;20052;-82
2022/08/10 07:34:08;;;;;;;4.05;1.98;;;22.50;99.90;;;;;;4902004;29;20413;-78
2022/08/10 07:36:57;;;;;;;4.10;1.75;;;22.60;99.90;;;;;;4900991;29;20087;-78
2022/08/10 07:39:47;;;;;;;5.30;1.90;;;22.70;99.90;;;;;;4882676;29;20473;-79
2022/08/10 07:42:36;;;;;;;4.15;1.90;;;22.80;99.90;;;;;;4897589;29;20139;-80
2022/08/10 07:45:27;;;;;;;4.72;1.60;;;22.80;99.90;;;;;;4897872;29;20133;-80
2022/08/10 07:48:28;;;;;;;4.97;1.65;;;22.80;99.90;;;;;;4897073;29;20139;-82
2022/08/10 07:51:18;;;;;;;4.40;1.60;;;23.00;99.90;;;;;;4898789;29;20059;-81
2022/08/10 07:54:07;;;;;;;6.25;1.90;;;23.00;99.90;;;;;;4898697;29;20049;-81
2022/08/10 07:57:00;;;;;;;5.72;1.77;;;23.30;99.90;;;;;;4897737;29;20056;-80
2022/08/10 07:59:53;;;;;;;5.82;1.65;;;23.30;99.90;;;;;;4897709;29;20135;-80
2022/08/10 08:02:54;;;;;;;4.50;1.70;;;23.40;99.90;;;;;;4898717;29;20052;-79
2022/08/10 08:05:42;;;;;;;5.05;1.65;;;23.50;99.90;;;;;;4898616;29;20144;-80
2022/08/10 08:08:30;;;;;;;3.83;1.50;;;23.70;99.90;;;;;;4897976;29;20457;-83
2022/08/10 08:11:20;;;;;;;5.50;1.65;;;23.70;99.90;;;;;;4898151;29;20707;-80
2022/08/10 08:14:08;;;;;;;6.78;1.48;;;23.70;99.90;;;;;;4884922;29;20108;-78
2022/08/10 08:16:56;;;;;;;4.57;1.70;;;23.90;99.90;;;;;;4897604;29;20410;-85
2022/08/10 08:19:45;;;;;;;3.35;1.35;;;24.10;99.90;;;;;;4897195;29;20081;-84
2022/08/10 08:22:32;;;;;;;3.45;1.30;;;24.10;99.90;;;;;;4898533;29;20139;-80
2022/08/10 08:25:20;;;;;;;5.53;1.60;;;24.10;99.90;;;;;;4900196;29;20519;-84
2022/08/10 08:28:08;;;;;;;7.35;1.77;;;24.10;99.90;;;;;;4899184;29;20477;-83
2022/08/10 08:30:56;;;;;;;5.03;1.90;;;24.30;99.90;;;;;;4897500;29;20060;-83
2022/08/10 08:33:45;;;;;;;6.22;1.52;;;24.30;99.90;;;;;;4898062;29;20045;-82
2022/08/10 08:36:34;;;;;;;5.47;1.77;;;24.50;99.90;;;;;;4881801;29;20048;-83
2022/08/10 08:39:20;;;;;;;5.45;1.60;;;24.60;99.90;;;;;;4897527;29;20060;-83
2022/08/10 08:42:13;;;;;;;6.35;1.90;;;24.80;99.90;;;;;;4897578;29;20052;-84
2022/08/10 08:45:22;;;;;;;4.53;1.45;;;24.90;99.90;;;;;;4897708;29;20426;-84
2022/08/10 08:48:36;;;;;;;5.80;1.73;;;25.10;99.90;;;;;;4897042;29;20090;-82
2022/08/10 08:51:36;;;;;;;4.90;1.70;;;25.10;99.90;;;;;;4896723;29;20196;-82
2022/08/10 08:54:36;;;;;;;4.95;1.77;;;25.20;99.90;;;;;;4895943;29;20057;-84
2022/08/10 08:57:27;;;;;;;7.57;1.33;;;25.10;99.90;;;;;;4897117;29;20056;-82
2022/08/10 09:00:30;;;;;;;5.30;1.27;;;25.20;99.20;;;;;;4896840;29;20056;-82
2022/08/10 09:03:36;;;;;;;4.60;1.40;;;25.20;99.90;;;;;;4897027;29;20067;-82
2022/08/10 09:06:31;;;;;;;;;;;25.50;99.90;;;;;;4896918;29;20513;-85
2022/08/10 09:09:42;;;;;;;5.82;1.40;;;25.80;99.50;;;;;;4895750;29;19927;-85
2022/08/10 09:12:49;;;;;;;5.85;1.25;;;25.90;99.60;;;;;;4896834;29;20053;-85
2022/08/10 09:15:39;;;;;;;3.95;1.20;;;26.10;99.20;;;;;;4881437;29;20053;-83
2022/08/10 09:18:40;;;;;;;3.35;1.27;;;26.20;99.10;;;;;;4880958;29;20052;-85
2022/08/10 09:21:42;;;;;;;3.75;1.73;;;26.30;98.80;;;;;;4897414;29;20052;-82
2022/08/10 09:24:57;;;;;;;4.78;1.40;;;26.50;97.60;;;;;;4881398;29;20048;-85
2022/08/10 09:27:51;;;;;;;8.15;1.70;;;26.50;98.40;;;;;;4900886;29;20108;-84
2022/08/10 09:30:48;;;;;;;5.03;1.25;;;26.60;98.30;;;;;;4898555;29;20539;-84
2022/08/10 09:34:07;;;;;;;3.83;0.98;;;26.90;97.90;;;;;;4896916;29;20116;-82
2022/08/10 09:37:11;;;;;;;3.67;1.33;;;26.90;96.80;;;;;;4898331;29;20464;-83
2022/08/10 09:40:38;;;;;;;6.68;1.60;;;26.90;97.40;;;;;;4896349;29;20056;-81
2022/08/10 09:44:10;;;;;;;5.30;1.38;;;26.90;96.60;;;;;;4890381;29;20049;-82
2022/08/10 09:47:34;;;;;;;4.03;1.40;;;27.20;97.00;;;;;;4896525;29;20079;-77
2022/08/10 09:50:36;;;;;;;4.82;1.40;;;27.10;96.20;;;;;;4899298;29;20056;-82
2022/08/10 09:53:59;;;;;;;6.25;1.70;;;27.20;96.70;;;;;;4898183;29;20060;-78
2022/08/10 09:56:51;;;;;;;3.80;1.25;;;27.30;96.40;;;;;;4897988;29;20064;-82
2022/08/10 10:00:13;;;;;;;5.20;1.55;;;27.50;96.80;;;;;;4897861;29;20103;-86
2022/08/10 10:03:13;;;;;;;10.18;2.05;;;27.60;95.70;;;;;;4895601;29;20095;-86
2022/08/10 10:06:22;;;;;;;4.93;1.83;;;27.70;96.40;;;;;;4895887;29;20053;-81
2022/08/10 10:09:20;;;;;;;5.05;1.13;;;27.70;96.00;;;;;;4895930;29;20052;-84
2022/08/10 10:12:43;;;;;;;8.90;1.80;;;27.90;96.20;;;;;;4895147;29;20045;-82
2022/08/10 10:15:34;;;;;;;5.90;1.70;;;28.10;95.40;;;;;;4895007;29;20056;-83
2022/08/10 10:18:48;;;;;;;3.80;1.20;;;28.00;94.80;;;;;;4896339;29;20063;-85
2022/08/10 10:22:24;;;;;;;5.43;1.40;;;28.20;95.10;;;;;;4896136;29;20044;-81
2022/08/10 10:25:29;;;;;;;6.60;1.45;;;28.50;94.90;;;;;;4896288;29;20501;-84
2022/08/10 10:28:39;;;;;;;3.17;1.20;;;28.50;94.60;;;;;;4895582;29;20048;-87
2022/08/10 10:31:29;;;;;;;5.65;1.67;;;28.50;94.80;;;;;;4895733;29;20303;-83
2022/08/10 10:34:22;;;;;;;4.05;1.00;;;28.70;95.00;;;;;;4897682;29;20049;-81
2022/08/10 10:37:10;;;;;;;3.25;1.30;;;28.90;94.40;;;;;;4896095;29;20062;-81
2022/08/10 10:40:00;;;;;;;3.30;1.55;;;29.20;94.10;;;;;;4895052;29;20117;-81
2022/08/10 10:43:21;;;;;;;5.18;1.45;;;29.10;93.30;;;;;;4897152;29;20059;-79
2022/08/10 10:46:30;;;;;;;4.90;1.48;;;28.90;93.10;;;;;;4895862;29;20064;-81
2022/08/10 10:49:41;;;;;;;3.67;1.85;;;29.00;93.40;;;;;;4895447;29;20104;-81
2022/08/10 10:53:08;;;;;;;4.55;1.58;;;29.00;93.20;;;;;;4879499;29;20502;-84
2022/08/10 10:56:11;;;;;;;5.40;1.60;;;29.20;93.10;;;;;;4881003;29;20135;-79
2022/08/10 10:59:16;;;;;;;4.60;1.40;;;29.20;92.90;;;;;;4879315;29;20057;-81
2022/08/10 11:02:02;;;;;;;;;;;29.30;92.80;;;;;;4878751;29;20053;-82
2022/08/10 11:05:29;;;;;;;9.80;1.80;;;29.20;92.20;;;;;;4876266;29;19924;-77
2022/08/10 11:08:23;;;;;;;3.55;1.15;;;29.30;92.00;;;;;;4817580;29;20065;-80
2022/08/10 11:11:30;;;;;;;5.43;1.33;;;29.50;92.80;;;;;;4876007;29;20057;-79
2022/08/10 11:14:38;;;;;;;3.55;1.35;;;29.80;92.00;;;;;;4877643;29;20075;-83
2022/08/10 11:17:41;;;;;;;7.10;1.30;;;30.20;92.40;;;;;;4880570;29;20139;-84
2022/08/10 11:20:46;;;;;;;4.75;1.23;;;30.30;92.50;;;;;;4879552;29;20060;-80
2022/08/10 11:23:35;;;;;;;;;;;30.30;92.80;;;;;;4864236;29;20080;-84
2022/08/10 11:26:50;;;;;;;3.40;1.65;;;30.00;92.60;;;;;;4880669;29;20378;-84
2022/08/10 11:29:49;;;;;;;4.75;1.73;;;29.90;92.70;;;;;;4864188;29;20566;-82
2022/08/10 11:33:02;;;;;;;6.38;1.83;;;29.90;93.00;;;;;;4878104;29;20052;-80
2022/08/10 11:36:00;;;;;;;4.57;1.55;;;30.10;93.40;;;;;;4880419;29;20446;-81
2022/08/10 11:38:52;;;;;;;4.55;1.83;;;30.10;92.90;;;;;;4882152;29;20056;-80
2022/08/10 11:41:44;;;;;;;7.13;2.00;;;30.30;93.00;;;;;;4882333;29;20059;-83
2022/08/10 11:44:44;;;;;;;5.43;1.48;;;30.20;92.70;;;;;;4880231;29;20053;-78
2022/08/10 11:47:35;;;;;;;4.00;1.23;;;30.30;92.80;;;;;;4878330;29;20053;-83
2022/08/10 11:50:30;;;;;;;6.30;1.60;;;30.40;93.00;;;;;;4887935;29;20111;-85
2022/08/10 11:53:35;;;;;;;5.57;1.25;;;30.60;92.50;;;;;;4885783;29;20048;-84
2022/08/10 11:56:49;;;;;;;9.27;1.20;;;31.00;92.60;;;;;;4883207;29;20056;-82
2022/08/10 11:59:55;;;;;;;5.70;1.35;;;30.70;92.50;;;;;;4889155;29;20390;-82
2022/08/10 12:02:51;;;;;;;4.97;1.33;;;30.60;92.70;;;;;;4897567;29;20053;-86
2022/08/10 12:05:40;;;;;;;3.58;1.63;;;31.20;92.40;;;;;;4897105;29;20091;-80
2022/08/10 12:08:28;;;;;;;4.70;1.58;;;31.00;91.90;;;;;;4897416;29;20528;-85
2022/08/10 12:11:22;;;;;;;5.78;1.30;;;31.20;92.40;;;;;;4896931;29;20135;-86
2022/08/10 12:14:25;;;;;;;;;;;31.50;92.00;;;;;;4898259;29;20048;-86
2022/08/10 12:17:17;;;;;;;5.40;1.48;;;31.80;91.40;;;;;;4898107;29;19928;-87
2022/08/10 12:20:08;;;;;;;6.18;1.63;;;31.90;91.20;;;;;;4897676;29;20101;-87
2022/08/10 12:23:10;;;;;;;6.55;1.80;;;32.10;90.80;;;;;;4898132;29;20045;-78
2022/08/10 12:26:11;;;;;;;3.85;1.00;;;32.20;89.70;;;;;;4899279;29;20108;-83
2022/08/10 12:29:35;;;;;;;4.57;1.10;;;32.10;90.10;;;;;;4898698;29;20052;-83
2022/08/10 12:32:34;;;;;;;9.32;1.00;;;32.30;90.90;;;;;;4896950;29;20120;-85
2022/08/10 12:35:26;;;;;;;5.63;1.52;;;32.70;90.40;;;;;;4897652;29;20083;-83
2022/08/10 12:38:22;;;;;;;3.65;1.20;;;32.40;90.30;;;;;;4897992;29;20418;-79
2022/08/10 12:41:24;;;;;;;4.68;1.40;;;32.30;90.40;;;;;;4898407;29;20048;-85
2022/08/10 12:44:31;;;;;;;5.82;1.67;;;33.00;89.70;;;;;;4896230;29;20159;-81
2022/08/10 12:47:45;;;;;;;4.65;1.02;;;33.10;89.10;;;;;;4898132;29;20124;-85
2022/08/10 12:50:56;;;;;;;4.28;0.70;;;33.10;86.90;;;;;;4897771;29;20049;-83
2022/08/10 12:54:02;;;;;;;5.10;1.20;;;33.10;88.20;;;;;;4896798;29;20048;-80
2022/08/10 12:57:00;;;;;;;4.18;1.02;;;33.50;86.80;;;;;;4896382;29;20061;-83
2022/08/10 13:00:07;;;;;;;8.63;1.13;;;33.80;87.00;;;;;;4896572;29;20085;-85
2022/08/10 13:02:55;;;;;;;3.90;1.00;;;33.90;85.70;;;;;;4896610;29;20058;-82
2022/08/10 13:05:43;;;;;;;3.10;1.00;;;33.70;86.00;;;;;;4897124;29;20413;-81
2022/08/10 13:12:06;;;;;;;7.30;1.17;;;33.70;85.00;;;;;;4897571;29;20045;-81
2022/08/10 13:14:58;;;;;;;5.85;1.35;;;34.30;82.50;;;;;;4883052;29;20494;-86
2022/08/10 13:17:49;;;;;;;7.50;1.35;;;34.60;82.20;;;;;;4898737;29;20106;-83
2022/08/10 13:20:39;;;;;;;5.75;1.02;;;34.50;80.40;;;;;;4895816;29;20083;-80
2022/08/10 13:23:28;;;;;;;5.75;1.20;;;34.50;81.00;;;;;;4896145;29;20139;-81
2022/08/10 13:26:19;;;;;;;4.13;1.25;;;34.70;80.30;;;;;;4896360;29;20052;-81
2022/08/10 13:29:13;;;;;;;7.30;1.42;;;34.90;80.10;;;;;;4897215;29;20508;-85
2022/08/10 13:32:02;;;;;;;3.65;0.98;;;35.30;78.00;;;;;;4897206;29;20076;-79
2022/08/10 13:34:50;;;;;;;4.30;1.40;;;35.30;77.90;;;;;;4897016;29;20052;-79
2022/08/10 13:37:42;;;;;;;4.18;1.30;;;35.70;77.20;;;;;;4896213;29;20134;-78
2022/08/10 13:40:30;;;;;;;5.20;0.82;;;35.80;75.50;;;;;;4896748;29;20079;-86
2022/08/10 13:43:18;;;;;;;4.45;1.45;;;36.50;75.30;;;;;;4898040;29;20095;-83
2022/08/10 13:46:12;;;;;;;3.33;1.15;;;36.80;72.50;;;;;;4902424;29;20060;-80
2022/08/10 13:48:59;;;;;;;;;;;37.10;71.80;;;;;;4898016;29;20128;-82
2022/08/10 13:51:46;;;;;;;6.07;1.00;;;37.30;68.50;;;;;;4897473;29;20342;-77
2022/08/10 13:54:40;;;;;;;3.67;1.13;;;37.60;69.00;;;;;;4896927;29;20564;-80
2022/08/10 13:57:33;;;;;;;3.15;1.20;;;37.80;68.80;;;;;;4897253;29;20048;-82
2022/08/10 14:00:20;;;;;;;3.37;1.20;;;37.90;66.50;;;;;;4880353;29;20111;-81
2022/08/10 14:03:25;;;;;;;4.35;1.30;;;37.90;65.80;;;;;;4880780;29;20639;-81
2022/08/10 14:06:14;;;;;;;4.40;1.05;;;37.80;65.90;;;;;;4895001;29;20049;-87
2022/08/10 14:09:07;;;;;;;5.03;1.10;;;38.00;64.50;;;;;;4896383;29;20382;-81
2022/08/10 14:11:55;;;;;;;5.10;1.58;;;38.50;63.00;;;;;;4882085;29;20056;-82
2022/08/10 14:14:44;;;;;;;5.25;1.08;;;38.50;61.30;;;;;;4882175;29;20497;-80
2022/08/10 14:17:31;;;;;;;3.58;1.63;;;38.50;61.00;;;;;;4867468;29;20104;-80
2022/08/10 14:20:18;;;;;;;5.13;1.15;;;38.60;60.10;;;;;;4881872;29;20535;-80
2022/08/10 14:23:12;;;;;;;6.63;1.45;;;39.00;59.60;;;;;;4879818;29;20052;-84
2022/08/10 14:26:02;;;;;;;4.15;1.00;;;39.00;58.00;;;;;;4880600;29;20405;-79
2022/08/10 14:29:11;;;;;;;4.22;1.10;;;39.10;57.50;;;;;;4895912;29;20568;-80
2022/08/10 14:31:59;;;;;;;6.05;1.20;;;39.00;57.00;;;;;;4880387;29;20269;-85
2022/08/10 14:34:48;;;;;;;6.28;1.45;;;39.10;57.10;;;;;;4897587;29;20379;-85
2022/08/10 14:37:57;;;;;;;4.20;1.08;;;38.80;56.50;;;;;;4884822;29;20056;-77
2022/08/10 14:40:48;;;;;;;3.28;1.10;;;38.90;56.00;;;;;;4897891;29;20052;-84
2022/08/10 14:43:39;;;;;;;5.28;1.13;;;39.00;56.80;;;;;;4880614;29;20056;-81
2022/08/10 14:46:27;;;;;;;3.20;0.90;;;39.00;56.10;;;;;;4896566;29;20424;-84
2022/08/10 14:49:15;;;;;;;4.00;0.95;;;39.20;55.10;;;;;;4897638;29;20056;-84
2022/08/10 14:52:02;;;;;;;3.13;1.08;;;39.20;55.40;;;;;;4871274;29;20058;-84
2022/08/10 14:54:51;;;;;;;4.15;0.77;;;39.60;54.50;;;;;;4900234;29;20049;-80
2022/08/10 14:57:42;;;;;;;5.13;1.02;;;39.60;54.30;;;;;;4898934;29;20049;-84
2022/08/10 15:00:36;;;;;;;6.10;1.05;;;39.30;53.40;;;;;;4899689;29;20053;-79
2022/08/10 15:03:27;;;;;;;2.13;0.70;;;39.30;53.00;;;;;;4899819;29;20052;-86
2022/08/10 15:06:15;;;;;;;4.90;1.00;;;39.20;53.20;;;;;;4898782;29;20289;-81
2022/08/10 15:09:09;;;;;;;3.67;1.00;;;38.80;52.10;;;;;;4899244;29;20123;-85